Time;durP1;ratioP1;P1;durP2;ratioP2;P2;SDS_P1;SDS_P2;PMS_P1;PMS_P2;Temp;Humidity;BMP_temperature;BMP_pressure;BME280_temperature;BME280_humidity;BME280_pressure;Samples;Min_cycle;Max_cycle;Signal;HPM_P1;HPM_P2
2021/09/11 00:00:17;;;;;;;25.25;22.55;;;18.10;99.90;;;;;;2074992;28;20034;-76
2021/09/11 00:01:18;;;;;;;24.58;21.83;;;18.10;99.90;;;;;;2076070;28;20072;-77
2021/09/11 00:02:18;;;;;;;24.65;21.95;;;18.10;99.90;;;;;;2075036;28;20088;-76
2021/09/11 00:03:19;;;;;;;23.88;21.38;;;18.10;99.90;;;;;;2074490;28;20080;-76
2021/09/11 00:04:19;;;;;;;24.65;21.95;;;18.10;99.90;;;;;;2075526;28;20030;-76
2021/09/11 00:05:22;;;;;;;24.55;22.05;;;18.10;99.90;;;;;;2075469;28;20022;-77
2021/09/11 00:06:23;;;;;;;24.65;22.02;;;18.10;99.90;;;;;;2075311;28;20037;-76
2021/09/11 00:07:24;;;;;;;24.25;21.67;;;18.10;99.90;;;;;;2074795;28;20025;-77
2021/09/11 00:08:24;;;;;;;25.65;22.17;;;18.10;99.90;;;;;;2074890;28;20053;-76
2021/09/11 00:09:25;;;;;;;23.80;21.40;;;18.10;99.90;;;;;;2074974;28;20522;-77
2021/09/11 00:10:26;;;;;;;24.35;21.75;;;18.10;99.90;;;;;;2074553;28;20037;-77
2021/09/11 00:11:26;;;;;;;25.08;22.48;;;18.10;99.90;;;;;;2074598;28;20538;-77
2021/09/11 00:12:27;;;;;;;25.52;21.77;;;18.10;99.90;;;;;;2074348;28;20549;-77
2021/09/11 00:13:28;;;;;;;24.73;22.13;;;18.10;99.90;;;;;;2074975;28;20029;-76
2021/09/11 00:14:28;;;;;;;25.45;22.55;;;18.10;99.90;;;;;;2073982;28;20495;-77
2021/09/11 00:15:32;;;;;;;25.52;22.92;;;18.10;99.90;;;;;;2074013;28;20032;-76
2021/09/11 00:16:32;;;;;;;24.58;22.00;;;18.10;99.90;;;;;;2075260;28;20376;-77
2021/09/11 00:17:34;;;;;;;24.48;22.00;;;18.10;99.90;;;;;;2076235;28;20017;-77
2021/09/11 00:18:35;;;;;;;25.45;22.73;;;18.10;99.90;;;;;;2075922;28;20109;-77
2021/09/11 00:19:36;;;;;;;24.88;22.27;;;18.00;99.90;;;;;;2074534;28;20061;-77
2021/09/11 00:20:36;;;;;;;24.10;21.63;;;18.00;99.90;;;;;;2074572;28;20038;-77
2021/09/11 00:21:38;;;;;;;24.02;21.48;;;18.00;99.90;;;;;;2074165;28;20032;-77
2021/09/11 00:22:39;;;;;;;24.27;21.67;;;18.00;99.90;;;;;;2075098;28;20553;-77
2021/09/11 00:23:40;;;;;;;23.70;21.30;;;18.00;99.90;;;;;;2075655;28;20038;-77
2021/09/11 00:24:40;;;;;;;23.65;21.25;;;18.00;99.90;;;;;;2074691;28;20026;-77
2021/09/11 00:25:41;;;;;;;23.63;21.17;;;18.00;99.90;;;;;;2074286;28;20113;-77
2021/09/11 00:26:42;;;;;;;23.60;21.20;;;18.00;99.90;;;;;;2074188;28;20523;-77
2021/09/11 00:27:42;;;;;;;23.90;21.50;;;17.90;99.90;;;;;;2073491;28;20399;-77
2021/09/11 00:28:43;;;;;;;24.85;22.05;;;17.90;99.90;;;;;;2073531;28;20026;-77
2021/09/11 00:29:44;;;;;;;23.70;21.20;;;17.90;99.90;;;;;;2074176;28;20438;-77
2021/09/11 00:30:44;;;;;;;23.63;21.15;;;17.90;99.90;;;;;;2073792;28;20038;-77
2021/09/11 00:31:45;;;;;;;24.65;22.15;;;17.90;99.90;;;;;;2073650;28;20113;-77
2021/09/11 00:32:45;;;;;;;24.13;21.63;;;17.90;99.90;;;;;;2073046;28;20038;-77
2021/09/11 00:33:46;;;;;;;25.08;22.08;;;17.80;99.90;;;;;;2074178;28;20376;-77
2021/09/11 00:34:47;;;;;;;24.35;21.85;;;17.80;99.90;;;;;;2082399;28;20032;-77
2021/09/11 00:35:48;;;;;;;25.40;22.70;;;17.80;99.90;;;;;;2082251;28;20030;-76
2021/09/11 00:36:48;;;;;;;25.77;23.08;;;17.80;99.90;;;;;;2065228;28;20388;-76
2021/09/11 00:37:49;;;;;;;25.73;23.02;;;17.80;99.90;;;;;;2073008;28;20022;-76
2021/09/11 00:38:49;;;;;;;25.42;22.80;;;17.80;99.90;;;;;;2072575;28;20033;-77
2021/09/11 00:39:50;;;;;;;25.27;22.38;;;17.80;99.90;;;;;;2073099;28;20033;-77
2021/09/11 00:40:51;;;;;;;25.80;23.10;;;17.80;99.90;;;;;;2073904;28;20068;-77
2021/09/11 00:41:52;;;;;;;25.50;22.80;;;17.80;99.90;;;;;;2073492;28;20122;-76
2021/09/11 00:42:52;;;;;;;26.15;23.45;;;17.80;99.90;;;;;;2073403;28;20088;-76
2021/09/11 00:43:53;;;;;;;25.50;22.80;;;17.70;99.90;;;;;;2073516;28;20112;-77
2021/09/11 00:44:54;;;;;;;25.05;22.35;;;17.70;99.90;;;;;;2081046;28;20036;-77
2021/09/11 00:45:54;;;;;;;26.42;23.55;;;17.70;99.90;;;;;;2081703;28;20068;-77
2021/09/11 00:46:55;;;;;;;27.23;23.98;;;17.70;99.90;;;;;;2074159;28;20061;-77
2021/09/11 00:47:56;;;;;;;26.25;23.42;;;17.70;99.90;;;;;;2074050;28;20522;-77
2021/09/11 00:48:57;;;;;;;26.25;23.55;;;17.70;99.90;;;;;;2073756;28;20037;-76
2021/09/11 00:49:57;;;;;;;25.88;23.13;;;17.70;99.90;;;;;;2073815;28;20044;-77
2021/09/11 00:50:58;;;;;;;26.05;23.25;;;17.70;99.90;;;;;;2073594;28;20033;-76
2021/09/11 00:51:59;;;;;;;25.17;22.58;;;17.70;99.90;;;;;;2072640;28;20026;-76
2021/09/11 00:52:59;;;;;;;25.13;22.45;;;17.70;99.90;;;;;;2064601;28;20037;-77
2021/09/11 00:54:03;;;;;;;25.85;23.13;;;17.70;99.90;;;;;;2073106;28;20592;-78
2021/09/11 00:55:05;;;;;;;25.55;22.95;;;17.70;99.90;;;;;;2073035;28;20026;-77
2021/09/11 00:56:06;;;;;;;26.42;23.42;;;17.70;99.90;;;;;;2072715;28;20541;-77
2021/09/11 00:57:07;;;;;;;26.63;23.80;;;17.70;99.90;;;;;;2073683;28;20026;-77
2021/09/11 00:58:08;;;;;;;26.52;23.83;;;17.70;99.90;;;;;;2073915;28;20022;-77
2021/09/11 00:59:09;;;;;;;25.90;23.20;;;17.70;99.90;;;;;;2073979;28;20022;-77
2021/09/11 01:00:11;;;;;;;26.38;23.58;;;17.70;99.90;;;;;;2073374;28;20030;-76
2021/09/11 01:01:13;;;;;;;28.45;25.02;;;17.70;99.90;;;;;;2079988;28;20499;-76
2021/09/11 01:02:14;;;;;;;27.02;24.15;;;17.70;99.90;;;;;;2080370;28;20075;-75
2021/09/11 01:03:15;;;;;;;26.98;24.08;;;17.70;99.90;;;;;;2064418;28;20093;-76
2021/09/11 01:04:18;;;;;;;27.15;24.25;;;17.70;99.90;;;;;;2065402;28;20070;-77
2021/09/11 01:05:19;;;;;;;29.13;24.45;;;17.60;99.90;;;;;;2073674;28;20029;-77
2021/09/11 01:06:20;;;;;;;26.48;23.67;;;17.60;99.90;;;;;;2073966;28;20033;-77
2021/09/11 01:07:21;;;;;;;26.48;23.67;;;17.60;99.90;;;;;;2073457;28;20041;-77
2021/09/11 01:08:21;;;;;;;28.35;25.33;;;17.60;99.90;;;;;;2073017;28;20045;-76
2021/09/11 01:09:22;;;;;;;27.85;24.92;;;17.60;99.90;;;;;;2073068;28;20030;-75
2021/09/11 01:10:23;;;;;;;27.35;24.45;;;17.60;99.90;;;;;;2072656;28;20054;-76
2021/09/11 01:11:23;;;;;;;28.17;24.88;;;17.60;99.90;;;;;;2072715;28;20479;-77
2021/09/11 01:12:26;;;;;;;26.67;23.98;;;17.60;99.90;;;;;;2073337;28;20084;-77
2021/09/11 01:13:27;;;;;;;26.65;23.73;;;17.60;99.90;;;;;;2073571;28;20057;-77
2021/09/11 01:14:27;;;;;;;25.75;23.08;;;17.60;99.90;;;;;;2073638;28;20033;-77
2021/09/11 01:15:37;;;;;;;26.15;23.25;;;17.50;99.90;;;;;;2073800;28;20022;-77
2021/09/11 01:16:38;;;;;;;26.00;23.20;;;17.50;99.90;;;;;;2081276;28;20033;-78
2021/09/11 01:17:42;;;;;;;26.30;23.50;;;17.50;99.90;;;;;;2072677;28;20046;-76
2021/09/11 01:18:43;;;;;;;29.52;25.88;;;17.50;99.90;;;;;;2072621;28;20061;-77
2021/09/11 01:19:44;;;;;;;27.90;24.90;;;17.50;99.90;;;;;;2073392;28;20559;-77
2021/09/11 01:20:45;;;;;;;29.05;24.80;;;17.50;99.90;;;;;;2073694;28;20049;-77
2021/09/11 01:21:45;;;;;;;28.88;25.88;;;17.50;99.90;;;;;;2073459;28;20036;-77
2021/09/11 01:22:46;;;;;;;27.48;24.48;;;17.40;99.90;;;;;;2073632;28;20091;-77
2021/09/11 01:23:46;;;;;;;26.95;24.08;;;17.40;99.90;;;;;;2073913;28;20029;-77
2021/09/11 01:25:13;;;;;;;27.50;24.50;;;17.50;99.90;;;;;;2073788;28;20058;-77
2021/09/11 01:26:14;;;;;;;28.52;25.25;;;17.40;99.90;;;;;;2071874;28;20141;-77
2021/09/11 01:27:15;;;;;;;27.23;24.42;;;17.40;99.90;;;;;;2073798;28;20057;-77
2021/09/11 01:28:16;;;;;;;27.58;24.67;;;17.50;99.90;;;;;;2073713;28;20029;-77
2021/09/11 01:29:17;;;;;;;26.85;24.02;;;17.40;99.90;;;;;;2073812;28;20026;-77
2021/09/11 01:30:20;;;;;;;27.40;24.50;;;17.40;99.90;;;;;;2073376;28;20505;-77
2021/09/11 01:31:20;;;;;;;28.02;24.95;;;17.40;99.90;;;;;;2073246;28;20076;-77
2021/09/11 01:32:22;;;;;;;26.95;24.10;;;17.40;99.90;;;;;;2073657;28;20523;-77
2021/09/11 01:33:24;;;;;;;26.42;23.63;;;17.40;99.90;;;;;;2073684;28;20475;-77
2021/09/11 01:34:25;;;;;;;26.65;23.85;;;17.40;99.90;;;;;;2073000;28;20018;-77
2021/09/11 01:35:25;;;;;;;26.77;23.90;;;17.40;99.90;;;;;;2072986;28;20080;-77
2021/09/11 01:36:26;;;;;;;27.02;24.00;;;17.40;99.90;;;;;;2081386;28;20053;-77
2021/09/11 01:37:27;;;;;;;27.15;23.85;;;17.40;99.90;;;;;;2073670;28;20022;-77
2021/09/11 01:38:28;;;;;;;27.02;23.83;;;17.40;99.90;;;;;;2073751;28;20050;-77
2021/09/11 01:39:28;;;;;;;27.73;24.90;;;17.40;99.90;;;;;;2073592;28;20029;-77
2021/09/11 01:40:29;;;;;;;27.90;24.70;;;17.40;99.90;;;;;;2073178;28;20288;-77
2021/09/11 01:41:29;;;;;;;27.27;23.92;;;17.40;99.90;;;;;;2073079;28;20037;-77
2021/09/11 01:42:30;;;;;;;27.05;24.25;;;17.40;99.90;;;;;;2072891;28;20450;-77
2021/09/11 01:43:33;;;;;;;27.05;24.17;;;17.30;99.90;;;;;;2072988;28;20029;-77
2021/09/11 01:44:33;;;;;;;26.98;24.17;;;17.30;99.90;;;;;;2081023;28;20044;-77
2021/09/11 01:45:34;;;;;;;27.95;24.95;;;17.30;99.90;;;;;;2073483;28;20033;-77
2021/09/11 01:46:34;;;;;;;27.20;24.30;;;17.30;99.90;;;;;;2073268;28;20038;-77
2021/09/11 01:47:36;;;;;;;26.65;23.85;;;17.30;99.90;;;;;;2072756;28;20354;-77
2021/09/11 01:48:37;;;;;;;27.17;24.40;;;17.30;99.90;;;;;;2072799;28;20092;-77
2021/09/11 01:49:37;;;;;;;27.70;24.77;;;17.30;99.90;;;;;;2073032;28;20483;-77
2021/09/11 01:50:38;;;;;;;25.85;23.15;;;17.20;99.90;;;;;;2072623;28;20033;-77
2021/09/11 01:51:45;;;;;;;26.38;23.55;;;17.20;99.90;;;;;;2072552;28;20018;-77
2021/09/11 01:52:47;;;;;;;26.92;23.92;;;17.20;99.90;;;;;;2073026;28;20137;-77
2021/09/11 01:53:48;;;;;;;26.30;23.50;;;17.20;99.90;;;;;;2073725;28;20033;-77
2021/09/11 01:54:48;;;;;;;26.23;23.42;;;17.30;99.90;;;;;;2073664;28;20095;-77
2021/09/11 01:55:49;;;;;;;27.10;24.02;;;17.20;99.90;;;;;;2073495;28;20577;-77
2021/09/11 01:56:50;;;;;;;26.98;24.15;;;17.20;99.90;;;;;;2072886;28;20034;-77
2021/09/11 01:57:50;;;;;;;26.70;23.83;;;17.20;99.90;;;;;;2072888;28;20112;-77
2021/09/11 01:58:51;;;;;;;26.80;23.98;;;17.20;99.90;;;;;;2080984;28;20029;-77
2021/09/11 01:59:51;;;;;;;27.67;24.60;;;17.20;99.90;;;;;;2081386;28;20079;-77
2021/09/11 02:00:52;;;;;;;26.55;23.75;;;17.20;99.90;;;;;;2074320;28;20030;-77
2021/09/11 02:01:52;;;;;;;26.42;23.73;;;17.20;99.90;;;;;;2074132;28;20045;-77
2021/09/11 02:02:53;;;;;;;28.17;24.23;;;17.20;99.90;;;;;;2073977;28;20084;-77
2021/09/11 02:03:54;;;;;;;26.98;24.17;;;17.20;99.90;;;;;;2073758;28;20029;-77
2021/09/11 02:04:54;;;;;;;27.13;24.17;;;17.20;99.90;;;;;;2082087;28;20029;-77
2021/09/11 02:05:55;;;;;;;26.77;23.88;;;17.10;99.90;;;;;;2074781;28;20522;-77
2021/09/11 02:06:55;;;;;;;29.60;24.70;;;17.10;99.90;;;;;;2074632;28;20091;-77
2021/09/11 02:07:56;;;;;;;28.73;25.60;;;17.20;99.90;;;;;;2074556;28;20472;-77
2021/09/11 02:08:57;;;;;;;28.55;24.45;;;17.10;99.90;;;;;;2073449;28;20034;-77
2021/09/11 02:09:57;;;;;;;27.48;24.48;;;17.10;99.90;;;;;;2073791;28;20498;-77
2021/09/11 02:10:58;;;;;;;27.98;24.98;;;17.10;99.90;;;;;;2073033;28;20550;-77
2021/09/11 02:11:59;;;;;;;28.23;24.20;;;17.10;99.90;;;;;;2073481;28;20030;-77
2021/09/11 02:13:00;;;;;;;26.73;23.92;;;17.10;99.90;;;;;;2073991;28;20045;-77
2021/09/11 02:14:01;;;;;;;26.92;24.13;;;17.10;99.90;;;;;;2074093;28;20810;-77
2021/09/11 02:15:02;;;;;;;26.77;23.98;;;17.10;99.90;;;;;;2074317;28;20026;-77
2021/09/11 02:16:03;;;;;;;26.50;23.70;;;17.20;99.90;;;;;;2074238;28;20040;-77
2021/09/11 02:17:04;;;;;;;26.25;23.45;;;17.20;99.90;;;;;;2074501;28;20026;-77
2021/09/11 02:18:04;;;;;;;25.60;22.98;;;17.20;99.90;;;;;;2073946;28;20061;-77
2021/09/11 02:19:05;;;;;;;27.77;24.85;;;17.20;99.90;;;;;;2072920;28;20033;-77
2021/09/11 02:20:07;;;;;;;27.45;24.13;;;17.20;99.90;;;;;;2072296;28;20437;-78
2021/09/11 02:21:07;;;;;;;26.10;23.40;;;17.20;99.90;;;;;;2080198;28;20079;-77
2021/09/11 02:22:10;;;;;;;28.10;24.80;;;17.20;99.90;;;;;;2073125;28;20430;-77
2021/09/11 02:23:11;;;;;;;26.10;23.40;;;17.20;99.90;;;;;;2073301;28;20101;-77
2021/09/11 02:24:12;;;;;;;28.75;23.80;;;17.20;99.90;;;;;;2073214;28;20026;-77
2021/09/11 02:25:12;;;;;;;26.40;23.48;;;17.20;99.90;;;;;;2072679;28;20022;-77
2021/09/11 02:26:13;;;;;;;27.00;24.10;;;17.30;99.90;;;;;;2072909;28;20030;-77
2021/09/11 02:27:13;;;;;;;27.73;24.13;;;17.30;99.90;;;;;;2073309;28;20048;-77
2021/09/11 02:28:14;;;;;;;26.25;23.50;;;17.30;99.90;;;;;;2073255;28;20050;-77
2021/09/11 02:29:15;;;;;;;25.63;22.83;;;17.30;99.90;;;;;;2073220;28;20021;-77
2021/09/11 02:30:16;;;;;;;26.55;23.63;;;17.30;99.90;;;;;;2072910;28;20034;-77
2021/09/11 02:31:16;;;;;;;26.48;23.67;;;17.30;99.90;;;;;;2073041;28;20321;-77
2021/09/11 02:32:17;;;;;;;27.02;24.15;;;17.30;99.90;;;;;;2073144;28;20360;-77
2021/09/11 02:33:18;;;;;;;26.27;23.58;;;17.30;99.90;;;;;;2073258;28;20025;-77
2021/09/11 02:34:18;;;;;;;25.98;23.17;;;17.40;99.90;;;;;;2073223;28;20033;-77
2021/09/11 02:35:19;;;;;;;25.52;22.90;;;17.40;99.90;;;;;;2073342;28;20045;-77
2021/09/11 02:36:20;;;;;;;25.85;23.02;;;17.40;99.90;;;;;;2072572;28;20446;-77
2021/09/11 02:37:20;;;;;;;26.25;23.55;;;17.40;99.90;;;;;;2072805;28;20028;-78
2021/09/11 02:38:21;;;;;;;24.70;22.20;;;17.40;99.90;;;;;;2072575;28;20050;-77
2021/09/11 02:39:21;;;;;;;25.27;22.67;;;17.40;99.90;;;;;;2072625;28;20036;-77
2021/09/11 02:40:22;;;;;;;24.23;21.73;;;17.40;99.90;;;;;;2072722;28;20029;-77
2021/09/11 02:41:23;;;;;;;25.23;22.52;;;17.40;99.90;;;;;;2072668;28;20030;-77
2021/09/11 02:42:23;;;;;;;24.92;22.38;;;17.40;99.90;;;;;;2073020;28;20021;-77
2021/09/11 02:43:24;;;;;;;25.80;22.52;;;17.40;99.90;;;;;;2073200;28;20022;-77
2021/09/11 02:44:24;;;;;;;26.02;23.10;;;17.40;99.90;;;;;;2073149;28;20054;-77
2021/09/11 02:45:25;;;;;;;27.00;23.33;;;17.40;99.90;;;;;;2072598;28;20120;-77
2021/09/11 02:46:25;;;;;;;24.88;22.35;;;17.40;99.90;;;;;;2072555;28;20044;-77
2021/09/11 02:47:26;;;;;;;24.85;22.23;;;17.40;99.90;;;;;;2080642;28;20036;-77
2021/09/11 02:48:27;;;;;;;25.40;22.70;;;17.40;99.90;;;;;;2073374;28;20034;-77
2021/09/11 02:49:27;;;;;;;24.30;21.65;;;17.40;99.90;;;;;;2073332;28;20380;-78
2021/09/11 02:50:28;;;;;;;25.42;22.65;;;17.40;99.90;;;;;;2073250;28;20069;-77
2021/09/11 02:51:29;;;;;;;24.25;21.65;;;17.40;99.90;;;;;;2073405;28;20034;-77
2021/09/11 02:52:29;;;;;;;25.02;22.33;;;17.40;99.90;;;;;;2073531;28;20108;-77
2021/09/11 02:53:30;;;;;;;25.70;23.00;;;17.40;99.90;;;;;;2073622;28;20034;-77
2021/09/11 02:54:30;;;;;;;25.42;22.67;;;17.40;99.90;;;;;;2073216;28;20383;-77
2021/09/11 02:55:31;;;;;;;25.42;22.73;;;17.40;99.90;;;;;;2073171;28;20060;-77
2021/09/11 02:56:31;;;;;;;26.35;23.45;;;17.40;99.90;;;;;;2072417;28;20386;-77
2021/09/11 02:57:32;;;;;;;24.80;22.23;;;17.40;99.90;;;;;;2072749;28;20092;-77
2021/09/11 02:58:33;;;;;;;26.05;23.13;;;17.40;99.90;;;;;;2073133;28;20022;-77
2021/09/11 02:59:33;;;;;;;25.42;22.75;;;17.40;99.90;;;;;;2073079;28;20084;-77
2021/09/11 03:00:34;;;;;;;25.23;22.58;;;17.50;99.90;;;;;;2072342;28;20051;-77
2021/09/11 03:01:34;;;;;;;26.15;23.45;;;17.40;99.90;;;;;;2072081;28;20065;-77
2021/09/11 03:02:36;;;;;;;26.48;23.35;;;17.40;99.90;;;;;;2073138;28;20045;-77
2021/09/11 03:03:38;;;;;;;24.88;22.27;;;17.40;99.90;;;;;;2073156;28;20017;-77
2021/09/11 03:04:38;;;;;;;25.30;22.55;;;17.40;99.90;;;;;;2073155;28;20495;-77
2021/09/11 03:05:39;;;;;;;24.58;22.08;;;17.40;99.90;;;;;;2074209;28;20053;-77
2021/09/11 03:06:39;;;;;;;25.10;22.48;;;17.40;99.90;;;;;;2081587;28;20076;-77
2021/09/11 03:07:40;;;;;;;24.70;22.02;;;17.50;99.90;;;;;;2082027;28;20025;-77
2021/09/11 03:08:40;;;;;;;24.63;21.92;;;17.50;99.90;;;;;;2081706;28;20514;-77
2021/09/11 03:09:41;;;;;;;25.23;22.52;;;17.50;99.90;;;;;;2073012;28;20434;-77
2021/09/11 03:10:42;;;;;;;25.45;22.77;;;17.50;99.90;;;;;;2072469;28;20038;-77
2021/09/11 03:11:42;;;;;;;25.50;22.77;;;17.50;99.90;;;;;;2072810;28;20049;-77
2021/09/11 03:12:43;;;;;;;24.73;22.13;;;17.40;99.90;;;;;;2073861;28;20057;-77
2021/09/11 03:13:44;;;;;;;25.10;22.40;;;17.40;99.90;;;;;;2073705;28;20459;-77
2021/09/11 03:14:45;;;;;;;24.95;22.30;;;17.40;99.90;;;;;;2073948;28;20018;-77
2021/09/11 03:15:45;;;;;;;25.17;22.48;;;17.40;99.90;;;;;;2074852;28;20030;-78
2021/09/11 03:16:46;;;;;;;25.58;22.77;;;17.40;99.90;;;;;;2074657;28;20571;-77
2021/09/11 03:17:46;;;;;;;25.30;22.60;;;17.40;99.90;;;;;;2074658;28;20041;-79
2021/09/11 03:18:47;;;;;;;24.85;21.52;;;17.40;99.90;;;;;;2074684;28;20053;-78
2021/09/11 03:19:48;;;;;;;24.73;22.13;;;17.40;99.90;;;;;;2075767;28;20049;-78
2021/09/11 03:20:48;;;;;;;25.70;23.00;;;17.40;99.90;;;;;;2076430;28;20084;-77
2021/09/11 03:21:49;;;;;;;24.42;21.85;;;17.40;99.90;;;;;;2075872;28;20116;-77
2021/09/11 03:22:50;;;;;;;24.40;21.90;;;17.40;99.90;;;;;;2084142;28;20048;-78
2021/09/11 03:23:50;;;;;;;24.77;22.17;;;17.40;99.90;;;;;;2082354;28;20103;-77
2021/09/11 03:24:51;;;;;;;25.48;22.77;;;17.40;99.90;;;;;;2073614;28;20048;-78
2021/09/11 03:25:51;;;;;;;25.50;22.80;;;17.40;99.90;;;;;;2072981;28;20053;-78
2021/09/11 03:26:52;;;;;;;25.23;22.52;;;17.30;99.90;;;;;;2073209;28;20034;-78
2021/09/11 03:27:53;;;;;;;25.00;22.33;;;17.30;99.90;;;;;;2073298;28;20479;-78
2021/09/11 03:28:53;;;;;;;25.27;22.58;;;17.30;99.90;;;;;;2074046;28;20045;-78
2021/09/11 03:29:54;;;;;;;25.38;22.67;;;17.30;99.90;;;;;;2074150;28;20058;-78
2021/09/11 03:30:54;;;;;;;25.13;22.20;;;17.30;99.90;;;;;;2073620;28;20526;-78
2021/09/11 03:31:55;;;;;;;24.98;22.40;;;17.30;99.90;;;;;;2073611;28;20531;-78
2021/09/11 03:32:56;;;;;;;25.10;22.50;;;17.30;99.90;;;;;;2073792;28;20080;-78
2021/09/11 03:33:56;;;;;;;25.50;22.88;;;17.30;99.90;;;;;;2074016;28;20022;-77
2021/09/11 03:34:57;;;;;;;25.10;22.60;;;17.30;99.90;;;;;;2081134;28;20065;-77
2021/09/11 03:35:58;;;;;;;25.98;23.20;;;17.30;99.90;;;;;;2080831;28;20021;-76
2021/09/11 03:36:59;;;;;;;25.13;22.42;;;17.30;99.90;;;;;;2080469;28;20025;-75
2021/09/11 03:38:00;;;;;;;24.88;22.27;;;17.30;99.90;;;;;;2080762;28;20033;-77
2021/09/11 03:39:01;;;;;;;24.33;21.83;;;17.30;99.90;;;;;;2080491;28;20108;-77
2021/09/11 03:40:01;;;;;;;26.73;22.42;;;17.30;99.90;;;;;;2073090;28;20030;-76
2021/09/11 03:41:02;;;;;;;24.95;22.35;;;17.30;99.90;;;;;;2072379;28;20040;-76
2021/09/11 03:42:03;;;;;;;24.75;22.15;;;17.30;99.90;;;;;;2071964;28;20032;-76
2021/09/11 03:43:03;;;;;;;25.35;22.25;;;17.30;99.90;;;;;;2072140;28;20061;-76
2021/09/11 03:44:04;;;;;;;24.23;21.67;;;17.30;99.90;;;;;;2080495;28;20025;-77
2021/09/11 03:45:05;;;;;;;25.73;22.77;;;17.30;99.90;;;;;;2072388;28;20578;-77
2021/09/11 03:46:06;;;;;;;25.63;22.80;;;17.30;99.90;;;;;;2072468;28;20021;-79
2021/09/11 03:47:06;;;;;;;24.30;21.80;;;17.30;99.90;;;;;;2073124;28;20360;-77
2021/09/11 03:48:07;;;;;;;24.40;21.77;;;17.30;99.90;;;;;;2072930;28;20049;-77
2021/09/11 03:49:08;;;;;;;25.58;22.90;;;17.30;99.90;;;;;;2073010;28;20033;-77
2021/09/11 03:50:09;;;;;;;25.13;22.52;;;17.30;99.90;;;;;;2072370;28;20053;-77
2021/09/11 03:51:10;;;;;;;25.67;22.08;;;17.40;99.90;;;;;;2072151;28;20117;-77
2021/09/11 03:52:10;;;;;;;25.42;22.73;;;17.30;99.90;;;;;;2072503;28;20026;-77
2021/09/11 03:53:11;;;;;;;24.17;21.67;;;17.30;99.90;;;;;;2073015;28;20053;-77
2021/09/11 03:54:12;;;;;;;26.05;23.25;;;17.30;99.90;;;;;;2081072;28;20148;-77
2021/09/11 03:55:12;;;;;;;24.73;22.13;;;17.40;99.90;;;;;;2081075;28;20068;-77
2021/09/11 03:56:13;;;;;;;24.85;22.25;;;17.40;99.90;;;;;;2080403;28;20084;-76
2021/09/11 03:57:14;;;;;;;24.90;22.30;;;17.30;99.90;;;;;;2072559;28;20140;-77
2021/09/11 03:58:15;;;;;;;25.90;23.13;;;17.30;99.90;;;;;;2072314;28;20018;-77
2021/09/11 03:59:15;;;;;;;25.80;23.10;;;17.30;99.90;;;;;;2072322;28;20259;-77
2021/09/11 04:00:16;;;;;;;25.60;22.80;;;17.30;99.90;;;;;;2063980;28;20042;-76
2021/09/11 04:01:16;;;;;;;25.40;22.70;;;17.30;99.90;;;;;;2064170;28;20489;-76
2021/09/11 04:02:18;;;;;;;24.73;22.08;;;17.30;99.90;;;;;;2072326;28;20022;-77
2021/09/11 04:03:18;;;;;;;24.55;21.98;;;17.30;99.90;;;;;;2073106;28;20061;-76
2021/09/11 04:04:19;;;;;;;25.27;22.30;;;17.30;99.90;;;;;;2074173;28;20495;-76
2021/09/11 04:05:19;;;;;;;24.65;22.05;;;17.30;99.90;;;;;;2073751;28;20164;-76
2021/09/11 04:06:20;;;;;;;25.00;22.40;;;17.30;99.90;;;;;;2074137;28;20530;-76
2021/09/11 04:07:21;;;;;;;23.95;21.42;;;17.30;99.90;;;;;;2064482;28;20030;-76
2021/09/11 04:08:21;;;;;;;24.38;21.88;;;17.30;99.90;;;;;;2064495;28;20061;-76
2021/09/11 04:09:22;;;;;;;25.00;22.25;;;17.30;99.90;;;;;;2073120;28;20065;-76
2021/09/11 04:10:23;;;;;;;25.38;22.77;;;17.30;99.90;;;;;;2072702;28;20037;-76
2021/09/11 04:11:23;;;;;;;25.90;22.75;;;17.30;99.90;;;;;;2071771;28;20030;-76
2021/09/11 04:12:25;;;;;;;25.13;22.42;;;17.30;99.90;;;;;;2072321;28;20045;-76
2021/09/11 04:13:26;;;;;;;24.90;22.20;;;17.30;99.90;;;;;;2073308;28;20392;-76
2021/09/11 04:14:26;;;;;;;24.15;21.65;;;17.20;99.90;;;;;;2081861;28;20056;-76
2021/09/11 04:15:27;;;;;;;25.25;22.52;;;17.20;99.90;;;;;;2081865;28;20057;-76
2021/09/11 04:16:27;;;;;;;24.75;22.17;;;17.20;99.90;;;;;;2081890;28;20426;-76
2021/09/11 04:17:28;;;;;;;25.17;22.58;;;17.20;99.90;;;;;;2082002;28;20095;-76
2021/09/11 04:18:28;;;;;;;23.63;21.23;;;17.20;99.90;;;;;;2082092;28;20033;-76
2021/09/11 04:19:29;;;;;;;24.58;22.00;;;17.20;99.90;;;;;;2074755;28;20034;-76
2021/09/11 04:20:30;;;;;;;25.65;22.75;;;17.20;99.90;;;;;;2075299;28;20535;-77
2021/09/11 04:21:30;;;;;;;24.75;22.08;;;17.20;99.90;;;;;;2076621;28;20045;-76
2021/09/11 04:22:31;;;;;;;26.80;23.05;;;17.10;99.90;;;;;;2077773;28;20026;-77
2021/09/11 04:23:32;;;;;;;25.48;22.77;;;17.10;99.90;;;;;;2068419;28;20471;-77
2021/09/11 04:24:32;;;;;;;27.55;23.25;;;17.10;99.90;;;;;;2067704;28;20121;-77
2021/09/11 04:25:33;;;;;;;25.63;22.90;;;17.10;99.90;;;;;;2067558;28;20038;-77
2021/09/11 04:26:36;;;;;;;25.35;22.65;;;17.10;99.90;;;;;;2076638;28;20534;-78
2021/09/11 04:27:36;;;;;;;26.88;23.00;;;17.00;99.90;;;;;;2076275;28;20050;-77
2021/09/11 04:28:37;;;;;;;26.30;23.60;;;17.00;99.90;;;;;;2082913;28;20021;-77
2021/09/11 04:29:38;;;;;;;28.10;23.48;;;17.00;99.90;;;;;;2082547;28;20036;-74
2021/09/11 04:30:39;;;;;;;26.52;23.63;;;17.00;99.90;;;;;;2074363;28;20033;-75
2021/09/11 04:31:39;;;;;;;26.08;23.27;;;17.00;99.90;;;;;;2074139;28;20061;-75
2021/09/11 04:32:40;;;;;;;25.33;22.63;;;17.00;99.90;;;;;;2074117;28;20052;-75
2021/09/11 04:33:40;;;;;;;25.70;22.75;;;17.00;99.90;;;;;;2074202;28;20089;-76
2021/09/11 04:34:41;;;;;;;25.02;22.35;;;17.00;99.90;;;;;;2073757;28;20022;-75
2021/09/11 04:35:42;;;;;;;25.10;22.45;;;17.00;99.90;;;;;;2073547;28;20376;-75
2021/09/11 04:36:42;;;;;;;24.25;21.65;;;16.90;99.90;;;;;;2074112;28;20767;-75
2021/09/11 04:37:43;;;;;;;24.42;21.83;;;16.90;99.90;;;;;;2073589;28;20546;-75
2021/09/11 04:38:43;;;;;;;24.80;22.20;;;16.90;99.90;;;;;;2065513;28;20053;-75
2021/09/11 04:39:44;;;;;;;24.45;21.90;;;16.90;99.90;;;;;;2073666;28;20026;-76
2021/09/11 04:40:45;;;;;;;26.05;22.50;;;16.90;99.90;;;;;;2073828;28;20072;-76
2021/09/11 04:41:45;;;;;;;26.17;22.02;;;16.90;99.90;;;;;;2072903;28;20088;-75
2021/09/11 04:42:46;;;;;;;24.60;21.70;;;16.90;99.90;;;;;;2073351;28;20041;-76
2021/09/11 04:43:46;;;;;;;24.38;21.77;;;16.90;99.90;;;;;;2081674;28;20048;-76
2021/09/11 04:44:47;;;;;;;24.80;22.10;;;16.90;99.90;;;;;;2081743;28;20092;-75
2021/09/11 04:45:48;;;;;;;24.13;21.63;;;16.80;99.90;;;;;;2073834;28;20042;-73
2021/09/11 04:46:48;;;;;;;24.45;21.92;;;16.80;99.90;;;;;;2073576;28;20403;-75
2021/09/11 04:47:49;;;;;;;24.75;22.15;;;16.80;99.90;;;;;;2074250;28;20034;-74
2021/09/11 04:48:50;;;;;;;24.75;21.90;;;16.80;99.90;;;;;;2073661;28;20052;-74
2021/09/11 04:49:51;;;;;;;26.08;23.27;;;16.80;99.90;;;;;;2073412;28;20513;-75
2021/09/11 04:50:51;;;;;;;26.48;23.65;;;16.80;99.90;;;;;;2073582;28;20049;-76
2021/09/11 04:51:52;;;;;;;24.98;22.38;;;16.80;99.90;;;;;;2073112;28;20153;-74
2021/09/11 04:52:53;;;;;;;25.30;22.52;;;16.70;99.90;;;;;;2073663;28;20060;-74
2021/09/11 04:53:53;;;;;;;24.98;22.38;;;16.70;99.90;;;;;;2073163;28;20038;-77
2021/09/11 04:54:54;;;;;;;24.92;22.30;;;16.70;99.90;;;;;;2073056;28;20022;-79
2021/09/11 04:55:55;;;;;;;25.50;22.77;;;16.70;99.90;;;;;;2073542;28;20080;-74
2021/09/11 04:56:55;;;;;;;25.20;22.60;;;16.70;99.90;;;;;;2073496;28;20164;-74
2021/09/11 04:57:56;;;;;;;23.95;21.38;;;16.70;99.90;;;;;;2073411;28;20022;-71
2021/09/11 04:58:56;;;;;;;25.80;23.00;;;16.70;99.90;;;;;;2072883;28;20084;-79
2021/09/11 04:59:57;;;;;;;25.38;22.67;;;16.70;99.90;;;;;;2073283;28;20036;-74
2021/09/11 05:00:58;;;;;;;25.98;23.17;;;16.70;99.90;;;;;;2080523;28;20037;-77
2021/09/11 05:01:58;;;;;;;25.10;22.40;;;16.70;99.90;;;;;;2072854;28;20064;-75
2021/09/11 05:02:59;;;;;;;25.67;23.00;;;16.70;99.90;;;;;;2073039;28;20885;-75
2021/09/11 05:04:00;;;;;;;26.17;23.35;;;16.70;99.90;;;;;;2073314;28;20049;-73
2021/09/11 05:05:01;;;;;;;26.67;23.88;;;16.80;99.90;;;;;;2073239;28;20041;-72
2021/09/11 05:06:01;;;;;;;26.10;23.30;;;16.80;99.90;;;;;;2073006;28;20534;-72
2021/09/11 05:07:02;;;;;;;25.20;22.60;;;16.80;99.90;;;;;;2073246;28;20061;-74
2021/09/11 05:08:03;;;;;;;25.33;22.63;;;16.80;99.90;;;;;;2073393;28;20034;-73
2021/09/11 05:09:04;;;;;;;24.40;21.90;;;16.80;99.90;;;;;;2073245;28;20030;-72